LGW weather

London Gatwick Airport
London, England, United Kingdom

Public forecast

Using degrees Celsius for public forecast. Weather courtesy of forecast.io.

METAR (pilot weather report)

Retrieved 2018/04/24 18:50 UTC (2 hours ago):

EGKK 241850Z 22012KT 8000 BKN005 12/11 Q1010

TAF (pilot weather forecast)

Retrieved 2018/04/24 18:16 UTC (2 hours ago):

TAF EGKK 241658Z 2418/2524 22012KT 9999 BKN006 TEMPO 2418/2503 6000 -RADZ PROB30 TEMPO 2418/2421 24015G25KT 4000 RADZ BKN004 BECMG 2502/2505 SCT030 TEMPO 2510/2521 26015G25KT 7000 SHRA PROB30 TEMPO 2514/2520 4000 +SHRA BKN012 BKN020CB